Time;durP1;ratioP1;P1;durP2;ratioP2;P2;SDS_P1;SDS_P2;PMS_P1;PMS_P2;Temp;Humidity;BMP_temperature;BMP_pressure;BME280_temperature;BME280_humidity;BME280_pressure;Samples;Min_cycle;Max_cycle;Signal;HPM_P1;HPM_P2
2023/04/12 00:01:00;;;;;;;9.27;3.30;;;11.40;37.00;;;;;;4973338;28;20458;-72
2023/04/12 00:03:26;;;;;;;13.15;3.90;;;11.40;39.50;;;;;;4973183;28;20476;-73
2023/04/12 00:05:54;;;;;;;13.68;3.63;;;11.20;41.60;;;;;;4972684;28;20877;-72
2023/04/12 00:08:31;;;;;;;11.13;4.00;;;11.10;42.70;;;;;;4972484;28;20403;-72
2023/04/12 00:10:57;;;;;;;11.33;3.40;;;11.00;45.20;;;;;;4971771;28;20758;-72
2023/04/12 00:13:23;;;;;;;15.77;3.30;;;10.90;48.00;;;;;;4972366;28;20388;-73
2023/04/12 00:15:48;;;;;;;10.30;3.43;;;10.80;48.90;;;;;;4970848;28;20499;-73
2023/04/12 00:18:14;;;;;;;11.03;3.00;;;10.70;51.60;;;;;;4972631;28;20873;-73
2023/04/12 00:20:39;;;;;;;10.50;3.50;;;10.60;53.10;;;;;;4972908;28;20388;-73
2023/04/12 00:23:05;;;;;;;10.57;3.37;;;10.50;54.70;;;;;;4978332;28;20938;-72
2023/04/12 00:25:31;;;;;;;13.03;3.40;;;10.50;56.10;;;;;;4978864;28;20757;-72
2023/04/12 00:27:57;;;;;;;7.90;2.80;;;10.50;55.50;;;;;;4978841;28;20395;-71
2023/04/12 00:30:23;;;;;;;12.05;3.10;;;10.50;55.70;;;;;;4978367;28;20876;-73
2023/04/12 00:32:49;;;;;;;10.90;3.40;;;10.50;56.40;;;;;;4976598;28;20414;-73
2023/04/12 00:35:15;;;;;;;11.30;3.70;;;10.40;57.50;;;;;;4979046;28;20400;-72
2023/04/12 00:37:40;;;;;;;11.30;3.57;;;10.40;59.50;;;;;;4978752;28;20943;-73
2023/04/12 00:40:08;;;;;;;13.60;3.63;;;10.40;60.60;;;;;;4978879;28;20480;-71
2023/04/12 00:42:35;;;;;;;11.02;4.00;;;10.40;61.60;;;;;;4978526;28;20392;-72
2023/04/12 00:45:01;;;;;;;15.68;4.60;;;10.40;60.10;;;;;;4979581;28;20873;-73
2023/04/12 00:47:28;;;;;;;17.88;5.07;;;10.40;60.80;;;;;;4978530;28;20399;-72
2023/04/12 00:49:54;;;;;;;11.52;3.72;;;10.50;60.20;;;;;;4978969;28;20396;-72
2023/04/12 00:52:21;;;;;;;12.32;3.65;;;10.40;60.20;;;;;;4978595;28;20450;-73
2023/04/12 00:54:46;;;;;;;10.00;3.90;;;10.30;61.10;;;;;;4979098;28;20989;-72
2023/04/12 00:57:12;;;;;;;13.07;3.90;;;10.20;63.00;;;;;;4979114;28;20454;-74
2023/04/12 00:59:38;;;;;;;11.48;3.80;;;10.20;62.90;;;;;;4978661;28;20391;-72
2023/04/12 01:02:04;;;;;;;11.80;4.10;;;10.30;63.00;;;;;;4960938;28;20392;-72
2023/04/12 01:04:30;;;;;;;10.97;3.73;;;10.30;62.60;;;;;;4979340;28;20396;-72
2023/04/12 01:07:14;;;;;;;12.57;3.83;;;10.20;63.50;;;;;;4980573;28;20726;-72
2023/04/12 01:10:17;;;;;;;16.07;3.80;;;10.30;64.10;;;;;;4985418;28;20468;-72
2023/04/12 01:13:06;;;;;;;14.10;4.20;;;10.30;64.10;;;;;;4984983;28;20512;-73
2023/04/12 01:15:35;;;;;;;15.50;4.87;;;10.20;64.40;;;;;;4986716;28;20407;-73
2023/04/12 01:18:04;;;;;;;13.00;3.60;;;10.20;65.50;;;;;;4987939;28;20955;-73
2023/04/12 01:20:38;;;;;;;10.70;3.90;;;10.30;65.60;;;;;;4981848;28;20885;-73
2023/04/12 01:23:28;;;;;;;13.70;4.10;;;10.20;67.30;;;;;;4978394;28;20384;-73
2023/04/12 01:26:31;;;;;;;13.73;3.78;;;10.10;71.60;;;;;;4979175;28;20915;-73
2023/04/12 01:28:59;;;;;;;12.27;3.75;;;10.00;72.40;;;;;;4977672;28;20412;-73
2023/04/12 01:31:27;;;;;;;13.90;3.70;;;10.00;72.90;;;;;;4979106;28;20412;-72
2023/04/12 01:33:55;;;;;;;17.30;4.50;;;10.00;73.90;;;;;;4974356;28;20400;-72
2023/04/12 01:36:22;;;;;;;15.27;4.15;;;10.10;74.00;;;;;;4976468;28;20396;-72
2023/04/12 01:38:49;;;;;;;11.73;4.10;;;10.10;74.00;;;;;;4974987;28;20399;-72
2023/04/12 01:41:15;;;;;;;12.77;3.78;;;10.00;75.10;;;;;;4974812;28;20396;-73
2023/04/12 01:43:45;;;;;;;17.45;4.45;;;10.00;76.00;;;;;;4976320;28;20454;-71
2023/04/12 01:46:13;;;;;;;11.90;4.28;;;9.90;78.90;;;;;;4975966;28;20400;-72
2023/04/12 01:48:41;;;;;;;12.98;3.80;;;9.80;79.20;;;;;;4975483;28;20396;-74
2023/04/12 01:51:43;;;;;;;8.52;4.18;;;9.80;80.70;;;;;;4975630;28;20523;-72
2023/04/12 01:54:12;;;;;;;10.75;4.50;;;9.80;79.20;;;;;;4974658;28;20492;-73
2023/04/12 01:56:45;;;;;;;14.98;4.40;;;9.80;79.70;;;;;;4976036;28;20403;-72
2023/04/12 01:59:14;;;;;;;14.00;4.10;;;9.80;78.50;;;;;;4976624;28;20384;-73
2023/04/12 02:01:41;;;;;;;12.35;3.90;;;9.80;78.60;;;;;;4974529;28;20470;-74
2023/04/12 02:04:08;;;;;;;10.50;4.10;;;9.80;79.40;;;;;;4974071;28;20388;-72
2023/04/12 02:06:34;;;;;;;8.38;3.70;;;9.70;78.50;;;;;;4974508;28;20486;-72
2023/04/12 02:09:02;;;;;;;10.90;3.63;;;9.80;77.30;;;;;;4956746;28;20541;-73
2023/04/12 02:11:28;;;;;;;9.07;3.50;;;9.70;78.90;;;;;;4974183;28;20388;-73
2023/04/12 02:13:53;;;;;;;14.57;3.60;;;9.70;78.00;;;;;;4974522;28;20847;-73
2023/04/12 02:16:21;;;;;;;8.65;3.58;;;9.60;78.60;;;;;;4974326;28;20524;-73
2023/04/12 02:18:48;;;;;;;13.80;3.60;;;9.60;80.10;;;;;;4975724;28;20384;-73
2023/04/12 02:21:14;;;;;;;8.85;3.60;;;9.50;81.20;;;;;;4974124;28;20396;-73
2023/04/12 02:23:40;;;;;;;9.85;3.80;;;9.50;82.40;;;;;;4974835;28;20402;-73
2023/04/12 02:26:06;;;;;;;13.65;3.88;;;9.50;83.90;;;;;;4974140;28;20396;-72
2023/04/12 02:28:33;;;;;;;9.30;3.50;;;9.40;84.60;;;;;;4973802;28;20735;-73
2023/04/12 02:30:59;;;;;;;15.27;4.30;;;9.50;85.40;;;;;;4973187;28;20396;-71
2023/04/12 02:33:26;;;;;;;14.57;4.40;;;9.40;84.60;;;;;;4973979;28;20427;-73
2023/04/12 02:35:52;;;;;;;11.18;3.97;;;9.50;85.40;;;;;;4973653;28;20404;-73
2023/04/12 02:38:18;;;;;;;13.60;4.40;;;9.50;86.80;;;;;;4972446;28;20400;-72
2023/04/12 02:40:44;;;;;;;16.57;4.73;;;9.50;85.90;;;;;;4973956;28;20853;-73
2023/04/12 02:43:09;;;;;;;9.13;4.10;;;9.50;86.40;;;;;;4973440;28;20425;-73
2023/04/12 02:45:35;;;;;;;9.03;3.93;;;9.50;87.00;;;;;;4973536;28;20451;-73
2023/04/12 02:48:01;;;;;;;7.10;3.47;;;9.40;87.80;;;;;;4974009;28;20412;-73
2023/04/12 02:50:28;;;;;;;11.65;3.90;;;9.40;88.50;;;;;;4973246;28;20399;-73
2023/04/12 02:52:53;;;;;;;11.98;4.32;;;9.40;87.60;;;;;;4972956;28;20424;-73
2023/04/12 02:55:19;;;;;;;9.27;4.73;;;9.40;88.20;;;;;;4972714;28;20454;-72
2023/04/12 02:57:44;;;;;;;9.60;4.80;;;9.40;89.70;;;;;;4973420;28;20413;-72
2023/04/12 03:00:11;;;;;;;7.78;3.75;;;9.50;86.00;;;;;;4972146;28;20400;-71
2023/04/12 03:02:37;;;;;;;6.88;3.13;;;9.50;86.40;;;;;;4974439;28;20408;-76
2023/04/12 03:05:03;;;;;;;8.55;3.25;;;9.40;86.20;;;;;;4973629;28;20404;-72
2023/04/12 03:07:29;;;;;;;14.55;4.40;;;9.40;87.20;;;;;;4981045;28;20403;-72
2023/04/12 03:09:55;;;;;;;11.48;3.97;;;9.40;87.80;;;;;;4974302;28;20877;-72
2023/04/12 03:12:20;;;;;;;10.83;4.90;;;9.30;88.90;;;;;;4956719;28;20419;-73
2023/04/12 03:14:46;;;;;;;9.73;4.57;;;9.30;91.40;;;;;;4973634;28;20419;-74
2023/04/12 03:17:11;;;;;;;11.90;4.57;;;9.20;92.40;;;;;;4974064;28;20406;-73
2023/04/12 03:19:37;;;;;;;11.60;3.90;;;9.30;90.10;;;;;;4974004;28;20438;-73
2023/04/12 03:22:03;;;;;;;11.90;3.50;;;9.30;90.20;;;;;;4973117;28;20411;-73
2023/04/12 03:24:32;;;;;;;6.17;2.63;;;9.30;90.40;;;;;;4975112;28;20881;-73
2023/04/12 03:26:59;;;;;;;11.77;3.72;;;9.30;88.70;;;;;;4956948;28;20462;-73
2023/04/12 03:29:24;;;;;;;7.05;3.28;;;9.30;89.20;;;;;;5002700;23;20427;-72
2023/04/12 03:31:50;;;;;;;10.45;3.78;;;9.20;88.90;;;;;;4992091;28;20395;-72
2023/04/12 03:34:15;;;;;;;13.50;4.15;;;9.20;88.70;;;;;;4992054;28;20508;-72
2023/04/12 03:36:41;;;;;;;8.98;3.45;;;9.20;89.80;;;;;;4992301;28;20747;-73
2023/04/12 03:39:06;;;;;;;15.02;4.45;;;9.30;89.00;;;;;;4991849;28;20390;-71
2023/04/12 03:41:32;;;;;;;8.40;3.40;;;9.30;88.80;;;;;;4991318;28;20390;-71
2023/04/12 03:43:58;;;;;;;9.88;3.05;;;9.40;87.20;;;;;;4992077;28;20476;-74
2023/04/12 03:46:23;;;;;;;9.27;3.55;;;9.30;86.90;;;;;;4992236;28;20390;-74
2023/04/12 03:48:50;;;;;;;7.13;3.20;;;9.30;88.10;;;;;;4991928;28;20386;-71
2023/04/12 03:51:16;;;;;;;7.38;3.15;;;9.30;88.00;;;;;;4991521;28;20394;-73
2023/04/12 03:53:42;;;;;;;13.57;3.60;;;9.20;88.10;;;;;;4992172;28;20453;-73
2023/04/12 03:56:07;;;;;;;6.65;3.50;;;9.20;88.90;;;;;;4990069;28;20413;-73
2023/04/12 03:58:33;;;;;;;11.23;3.20;;;9.30;86.70;;;;;;4991113;28;20395;-72
2023/04/12 04:01:04;;;;;;;10.77;3.40;;;9.30;86.80;;;;;;4991417;28;20401;-73
2023/04/12 04:03:33;;;;;;;7.72;3.13;;;9.30;87.70;;;;;;4995079;28;20404;-73
2023/04/12 04:06:00;;;;;;;6.72;2.92;;;9.30;85.30;;;;;;4994509;28;20424;-72
2023/04/12 04:08:27;;;;;;;9.30;3.63;;;9.30;85.00;;;;;;4997072;28;20394;-72
2023/04/12 04:10:53;;;;;;;12.00;3.87;;;9.30;85.90;;;;;;5004701;28;20419;-73
2023/04/12 04:13:19;;;;;;;9.05;2.90;;;9.20;85.90;;;;;;5005974;28;20390;-74
2023/04/12 04:15:45;;;;;;;7.70;3.43;;;9.30;85.00;;;;;;4993937;28;20404;-73
2023/04/12 04:18:10;;;;;;;9.20;3.50;;;9.30;83.90;;;;;;4992440;28;20413;-73
2023/04/12 04:20:36;;;;;;;7.47;3.00;;;9.30;86.00;;;;;;4991682;28;20386;-72
2023/04/12 04:23:02;;;;;;;9.77;3.30;;;9.30;83.90;;;;;;4991504;28;20386;-72
2023/04/12 04:25:28;;;;;;;11.13;4.70;;;9.40;83.10;;;;;;4991679;28;20391;-73
2023/04/12 04:27:55;;;;;;;9.17;3.30;;;9.40;82.10;;;;;;4992041;28;20402;-72
2023/04/12 04:30:22;;;;;;;10.20;3.13;;;9.40;81.80;;;;;;4991352;28;20500;-72
2023/04/12 04:32:48;;;;;;;11.03;3.20;;;9.40;81.30;;;;;;4991943;28;20477;-73
2023/04/12 04:35:14;;;;;;;7.97;3.43;;;9.30;82.30;;;;;;4992212;28;20522;-71
2023/04/12 04:37:40;;;;;;;8.07;3.30;;;9.40;83.20;;;;;;4991921;28;20480;-73
2023/04/12 04:40:13;;;;;;;5.70;2.60;;;9.30;84.50;;;;;;4992262;28;20383;-75
2023/04/12 04:42:38;;;;;;;6.53;2.90;;;9.30;83.50;;;;;;4990124;28;20469;-73
2023/04/12 04:45:11;;;;;;;8.20;3.17;;;9.30;85.00;;;;;;4992588;28;20887;-72
2023/04/12 04:47:38;;;;;;;5.97;3.20;;;9.30;87.00;;;;;;4995670;28;20396;-74
2023/04/12 04:50:04;;;;;;;9.90;3.15;;;9.30;85.70;;;;;;5002250;28;20379;-74
2023/04/12 04:52:29;;;;;;;6.97;3.10;;;9.30;86.40;;;;;;5000573;28;20394;-74
2023/04/12 04:54:56;;;;;;;11.50;3.90;;;9.20;87.20;;;;;;4995540;28;20821;-72
2023/04/12 04:57:22;;;;;;;9.10;3.55;;;9.20;88.20;;;;;;4995469;28;20879;-73
2023/04/12 04:59:48;;;;;;;9.90;3.80;;;9.20;88.80;;;;;;4994813;28;20429;-73
2023/04/12 05:02:15;;;;;;;7.25;3.80;;;9.20;90.80;;;;;;4995867;28;20386;-72
2023/04/12 05:04:40;;;;;;;6.78;3.50;;;9.20;91.50;;;;;;4995116;28;20729;-75
2023/04/12 05:07:06;;;;;;;8.02;3.60;;;9.20;93.70;;;;;;4997328;28;20751;-73
2023/04/12 05:09:31;;;;;;;10.80;3.60;;;9.20;92.30;;;;;;4998844;28;20413;-73
2023/04/12 05:11:57;;;;;;;9.02;3.97;;;9.30;91.70;;;;;;4995993;28;20399;-72
2023/04/12 05:14:22;;;;;;;6.68;3.30;;;9.20;90.60;;;;;;4997021;28;20408;-73
2023/04/12 05:16:48;;;;;;;9.10;2.95;;;9.30;91.40;;;;;;4997378;28;20840;-74
2023/04/12 05:19:13;;;;;;;7.18;3.60;;;9.20;90.50;;;;;;4996844;28;20536;-72
2023/04/12 05:21:39;;;;;;;5.82;3.60;;;9.20;92.20;;;;;;4995475;28;20521;-71
2023/04/12 05:24:05;;;;;;;8.95;4.15;;;9.20;92.90;;;;;;4995917;28;20391;-73
2023/04/12 05:26:33;;;;;;;10.27;3.80;;;9.20;93.10;;;;;;4997030;28;20736;-73
2023/04/12 05:29:00;;;;;;;9.55;3.80;;;9.20;94.40;;;;;;4994320;28;20481;-73
2023/04/12 05:31:27;;;;;;;5.97;3.58;;;9.20;94.90;;;;;;4994798;28;21231;-73
2023/04/12 05:33:53;;;;;;;8.33;4.30;;;9.20;95.60;;;;;;4997683;28;20386;-74
2023/04/12 05:36:19;;;;;;;8.48;4.00;;;9.20;96.40;;;;;;5000973;28;20410;-72
2023/04/12 05:38:45;;;;;;;8.50;3.75;;;9.20;96.40;;;;;;5005388;28;20482;-73
2023/04/12 05:41:11;;;;;;;6.15;4.00;;;9.20;97.50;;;;;;5006167;28;20398;-74
2023/04/12 05:43:36;;;;;;;8.75;4.00;;;9.20;97.70;;;;;;4998263;28;20390;-72
2023/04/12 05:46:03;;;;;;;8.40;4.10;;;9.20;98.50;;;;;;4998493;28;20390;-72
2023/04/12 05:48:29;;;;;;;8.45;4.13;;;9.30;96.70;;;;;;4996946;28;20398;-73
2023/04/12 05:50:55;;;;;;;7.55;3.85;;;9.30;96.70;;;;;;4999559;28;20394;-73
2023/04/12 05:53:21;;;;;;;11.00;3.83;;;9.20;97.80;;;;;;5002513;28;20504;-73
2023/04/12 05:55:46;;;;;;;8.95;4.22;;;9.20;98.70;;;;;;4996110;28;20481;-74
2023/04/12 05:58:12;;;;;;;6.70;3.78;;;9.30;97.70;;;;;;5002974;28;20425;-72
2023/04/12 06:00:41;;;;;;;8.75;3.80;;;9.30;98.70;;;;;;5008960;28;20386;-72
2023/04/12 06:03:09;;;;;;;9.00;3.47;;;9.30;97.70;;;;;;5001731;28;20394;-72
2023/04/12 06:05:34;;;;;;;8.35;4.22;;;9.30;98.80;;;;;;4996206;28;20387;-73
2023/04/12 06:08:00;;;;;;;5.73;3.60;;;9.30;98.80;;;;;;4995055;28;20922;-74
2023/04/12 06:10:26;;;;;;;6.32;3.50;;;9.40;99.60;;;;;;4995201;28;20748;-75
2023/04/12 06:12:52;;;;;;;5.20;3.40;;;9.40;97.60;;;;;;4993737;28;20405;-74
2023/04/12 06:15:19;;;;;;;9.20;4.07;;;9.40;98.10;;;;;;4994201;28;20416;-72
2023/04/12 06:17:45;;;;;;;7.55;3.45;;;9.40;98.00;;;;;;4994294;28;20394;-73
2023/04/12 06:20:11;;;;;;;6.28;3.88;;;9.40;96.90;;;;;;4993558;28;20449;-72
2023/04/12 06:22:37;;;;;;;7.05;3.90;;;9.40;97.70;;;;;;4993760;28;20378;-71
2023/04/12 06:25:03;;;;;;;6.43;3.23;;;9.40;98.50;;;;;;4994624;28;20485;-72
2023/04/12 06:27:29;;;;;;;5.70;3.60;;;9.40;98.20;;;;;;4993144;28;20430;-72
2023/04/12 06:29:55;;;;;;;8.20;3.97;;;9.30;99.40;;;;;;4993630;28;20398;-72
2023/04/12 06:32:21;;;;;;;7.27;4.00;;;9.40;99.90;;;;;;4993685;28;20393;-72
2023/04/12 06:34:47;;;;;;;6.65;3.25;;;9.50;99.60;;;;;;4994445;28;20410;-73
2023/04/12 06:37:12;;;;;;;8.02;3.40;;;9.60;96.60;;;;;;4996248;28;20398;-73
2023/04/12 06:39:38;;;;;;;6.78;3.63;;;9.70;95.60;;;;;;5002037;28;20818;-75
2023/04/12 06:42:04;;;;;;;8.07;3.80;;;9.70;95.60;;;;;;5000435;28;20383;-71
2023/04/12 06:44:29;;;;;;;4.83;3.00;;;9.70;95.10;;;;;;4993481;28;20482;-73
2023/04/12 06:46:55;;;;;;;7.93;4.72;;;9.70;95.30;;;;;;4994202;28;20449;-73
2023/04/12 06:49:20;;;;;;;7.20;3.45;;;9.70;95.50;;;;;;4993794;28;20390;-74
2023/04/12 06:51:46;;;;;;;5.10;3.43;;;9.70;96.40;;;;;;4993557;28;20445;-72
2023/04/12 06:54:12;;;;;;;7.53;3.40;;;9.70;95.90;;;;;;4993685;28;20386;-71
2023/04/12 06:56:38;;;;;;;10.20;4.00;;;9.70;95.80;;;;;;4993630;28;20728;-72
2023/04/12 06:59:04;;;;;;;5.13;3.50;;;9.70;96.40;;;;;;4993527;28;20401;-72
2023/04/12 07:01:30;;;;;;;3.95;3.20;;;9.70;95.80;;;;;;4991690;28;20867;-74
2023/04/12 07:03:55;;;;;;;9.93;4.00;;;9.80;94.00;;;;;;4992140;28;20399;-73
2023/04/12 07:06:21;;;;;;;5.65;3.42;;;9.70;95.20;;;;;;4993661;28;20382;-73
2023/04/12 07:08:47;;;;;;;8.15;4.30;;;9.90;95.70;;;;;;4993341;28;20410;-74
2023/04/12 07:11:12;;;;;;;4.60;3.45;;;10.00;95.80;;;;;;4992242;28;20395;-72
2023/04/12 07:13:38;;;;;;;6.72;3.20;;;10.20;90.90;;;;;;4995241;28;20393;-72
2023/04/12 07:16:04;;;;;;;5.85;3.05;;;10.30;88.40;;;;;;4994713;28;20416;-73
2023/04/12 07:18:30;;;;;;;7.65;4.57;;;10.20;90.00;;;;;;4992855;28;20379;-73
2023/04/12 07:20:58;;;;;;;6.27;3.40;;;10.10;94.20;;;;;;4994245;28;20442;-72
2023/04/12 07:23:24;;;;;;;6.22;3.78;;;10.20;91.70;;;;;;4995841;28;20449;-73
2023/04/12 07:25:50;;;;;;;7.50;3.97;;;10.30;91.70;;;;;;5001884;28;20418;-74
2023/04/12 07:28:16;;;;;;;6.00;3.90;;;10.40;89.40;;;;;;5002460;28;20413;-74
2023/04/12 07:30:41;;;;;;;7.27;3.37;;;10.60;87.50;;;;;;5001300;28;20407;-73
2023/04/12 07:33:07;;;;;;;6.23;3.30;;;10.60;84.70;;;;;;4996873;28;20851;-74
2023/04/12 07:35:33;;;;;;;4.60;3.00;;;10.50;85.80;;;;;;4998369;28;20414;-74
2023/04/12 07:38:00;;;;;;;6.67;3.30;;;10.40;88.10;;;;;;5000240;28;20783;-72
2023/04/12 07:40:25;;;;;;;6.53;3.27;;;10.50;88.10;;;;;;4995023;28;20417;-73
2023/04/12 07:42:51;;;;;;;8.43;2.95;;;10.70;87.10;;;;;;4993055;28;20403;-73
2023/04/12 07:45:19;;;;;;;6.53;3.20;;;10.70;85.70;;;;;;4996553;28;20476;-72
2023/04/12 07:47:45;;;;;;;5.82;2.92;;;10.70;85.50;;;;;;4996265;28;20401;-73
2023/04/12 07:50:10;;;;;;;6.18;3.20;;;10.70;86.00;;;;;;4994027;28;20887;-75
2023/04/12 07:52:36;;;;;;;4.75;3.38;;;10.60;88.40;;;;;;4994289;28;20427;-73
2023/04/12 07:55:01;;;;;;;6.07;3.55;;;10.50;89.90;;;;;;4995254;28;20482;-73
2023/04/12 07:57:27;;;;;;;4.93;3.30;;;10.40;90.80;;;;;;4993449;28;20382;-73
2023/04/12 07:59:53;;;;;;;6.40;3.10;;;10.30;93.20;;;;;;4994143;28;20390;-73
2023/04/12 08:02:23;;;;;;;4.05;3.40;;;10.40;92.70;;;;;;4992156;28;20401;-74
2023/04/12 08:04:52;;;;;;;5.70;3.33;;;10.50;92.50;;;;;;4994242;28;20397;-74
2023/04/12 08:07:18;;;;;;;5.20;3.42;;;10.50;91.10;;;;;;4994256;28;20398;-71
2023/04/12 08:09:44;;;;;;;6.30;3.50;;;10.60;89.50;;;;;;5002646;28;20405;-71
2023/04/12 08:12:10;;;;;;;5.45;3.28;;;10.60;90.20;;;;;;5008499;28;20476;-71
2023/04/12 08:14:36;;;;;;;4.97;3.17;;;10.70;89.50;;;;;;4996136;28;20411;-71
2023/04/12 08:17:01;;;;;;;5.72;3.50;;;10.70;90.10;;;;;;4992975;28;20397;-72
2023/04/12 08:19:27;;;;;;;4.78;3.60;;;10.70;91.30;;;;;;4992878;28;20386;-72
2023/04/12 08:21:52;;;;;;;6.32;3.40;;;10.90;90.10;;;;;;4991879;28;20390;-73
2023/04/12 08:24:18;;;;;;;4.38;3.95;;;11.20;85.70;;;;;;4992202;28;20389;-72
2023/04/12 08:26:44;;;;;;;5.35;3.55;;;11.30;83.60;;;;;;4992731;28;20874;-72
2023/04/12 08:29:11;;;;;;;4.40;3.53;;;11.50;83.40;;;;;;4992285;28;20871;-72
2023/04/12 08:31:37;;;;;;;5.35;3.67;;;11.80;81.60;;;;;;4992152;28;20448;-74
2023/04/12 08:34:02;;;;;;;5.25;3.40;;;11.90;80.00;;;;;;4990848;28;20403;-73
2023/04/12 08:36:28;;;;;;;6.95;3.15;;;11.90;77.60;;;;;;4992801;28;20429;-71
2023/04/12 08:38:58;;;;;;;4.47;3.40;;;11.90;76.50;;;;;;4992544;28;20855;-73
2023/04/12 08:41:23;;;;;;;6.30;3.00;;;11.80;77.50;;;;;;4993794;28;20417;-75
2023/04/12 08:43:50;;;;;;;5.47;3.13;;;11.70;79.00;;;;;;4997401;28;20386;-72
2023/04/12 08:46:16;;;;;;;3.90;3.08;;;11.70;78.20;;;;;;4996743;28;20394;-74
2023/04/12 08:48:45;;;;;;;6.50;3.25;;;11.60;80.30;;;;;;4996659;28;20390;-73
2023/04/12 08:51:14;;;;;;;4.57;3.17;;;11.60;81.30;;;;;;4995432;28;20823;-73
2023/04/12 08:53:39;;;;;;;4.70;3.40;;;11.60;81.20;;;;;;4997479;28;20725;-73
2023/04/12 08:56:12;;;;;;;5.93;3.42;;;11.60;83.00;;;;;;5000744;28;20433;-73
2023/04/12 08:58:47;;;;;;;5.47;3.40;;;11.80;80.50;;;;;;5000122;28;20389;-73
2023/04/12 09:01:15;;;;;;;4.50;3.20;;;11.80;80.90;;;;;;4996520;28;20390;-72
2023/04/12 09:03:45;;;;;;;5.53;2.90;;;11.70;81.40;;;;;;4996300;28;20767;-72
2023/04/12 09:06:11;;;;;;;3.30;3.00;;;11.60;83.10;;;;;;4996560;28;20907;-73
2023/04/12 09:08:49;;;;;;;4.68;3.20;;;11.50;85.20;;;;;;4996453;28;20810;-73
2023/04/12 09:11:27;;;;;;;5.28;3.20;;;11.50;86.20;;;;;;4994698;28;20401;-73
2023/04/12 09:13:55;;;;;;;4.57;3.65;;;11.60;85.80;;;;;;4995914;28;20394;-75
2023/04/12 09:16:53;;;;;;;5.37;3.60;;;11.80;85.60;;;;;;4996016;28;20406;-74
2023/04/12 09:19:35;;;;;;;5.45;3.63;;;12.00;84.00;;;;;;4984858;28;20406;-74
2023/04/12 09:22:01;;;;;;;5.13;2.90;;;12.20;80.50;;;;;;4996946;28;20457;-74
2023/04/12 09:24:28;;;;;;;3.50;3.20;;;12.20;79.10;;;;;;4996511;28;20390;-73
2023/04/12 09:27:02;;;;;;;6.30;3.83;;;12.10;82.00;;;;;;4995291;28;20406;-73
2023/04/12 09:29:27;;;;;;;9.00;3.83;;;12.10;83.70;;;;;;4996672;28;20414;-73
2023/04/12 09:32:00;;;;;;;4.30;3.90;;;12.00;82.80;;;;;;4994042;28;20767;-74
2023/04/12 09:34:26;;;;;;;4.25;3.67;;;11.90;84.60;;;;;;4995379;28;20386;-74
2023/04/12 09:36:52;;;;;;;3.90;3.50;;;12.00;84.10;;;;;;4997598;28;20383;-73
2023/04/12 09:39:18;;;;;;;4.68;3.55;;;12.20;80.40;;;;;;4995342;28;20387;-72
2023/04/12 09:41:44;;;;;;;4.72;3.50;;;12.20;81.00;;;;;;4993070;28;20770;-73
2023/04/12 09:44:27;;;;;;;5.47;4.22;;;12.30;81.80;;;;;;4995107;28;20387;-71
2023/04/12 09:46:53;;;;;;;4.28;3.60;;;12.50;80.90;;;;;;4994882;28;20764;-73
2023/04/12 09:49:19;;;;;;;5.57;4.30;;;12.60;78.30;;;;;;4994878;28;20387;-72
2023/04/12 09:51:51;;;;;;;4.50;3.42;;;12.60;78.10;;;;;;4994053;28;20883;-73
2023/04/12 09:54:17;;;;;;;5.90;3.90;;;13.00;75.30;;;;;;4993571;28;20864;-73
2023/04/12 09:56:44;;;;;;;4.93;3.70;;;13.60;72.00;;;;;;4995102;28;20456;-73
2023/04/12 09:59:10;;;;;;;4.47;3.40;;;14.20;65.90;;;;;;4995403;28;20414;-72
2023/04/12 10:01:40;;;;;;;3.50;3.20;;;14.80;61.20;;;;;;4993918;28;20382;-70
2023/04/12 10:04:07;;;;;;;3.80;2.60;;;15.10;53.60;;;;;;4994115;28;20859;-72
2023/04/12 10:06:33;;;;;;;3.63;2.40;;;15.40;49.60;;;;;;4994160;28;20387;-72
2023/04/12 10:09:03;;;;;;;3.40;2.50;;;15.60;49.60;;;;;;4993153;28;20445;-72
2023/04/12 10:11:29;;;;;;;5.13;2.85;;;15.70;48.10;;;;;;4994973;28;20406;-73
2023/04/12 10:13:55;;;;;;;3.87;2.30;;;15.70;47.40;;;;;;4993866;28;20394;-72
2023/04/12 10:16:21;;;;;;;2.22;2.00;;;15.50;49.00;;;;;;4994455;28;20763;-72
2023/04/12 10:18:47;;;;;;;4.23;2.57;;;15.20;49.10;;;;;;4994898;28;20445;-71
2023/04/12 10:21:14;;;;;;;2.83;2.60;;;14.60;54.40;;;;;;4994474;28;20397;-72
2023/04/12 10:23:44;;;;;;;6.25;3.22;;;14.10;60.20;;;;;;4994014;28;20397;-73
2023/04/12 10:26:09;;;;;;;2.70;2.50;;;13.70;65.50;;;;;;4995529;28;20462;-72
2023/04/12 10:28:35;;;;;;;4.40;2.83;;;13.30;64.30;;;;;;4994337;28;20887;-73
2023/04/12 10:31:28;;;;;;;2.92;2.47;;;13.30;67.50;;;;;;4993523;28;20827;-71
2023/04/12 10:33:54;;;;;;;3.17;2.53;;;13.40;65.70;;;;;;4994503;28;20866;-71
2023/04/12 10:36:58;;;;;;;3.05;2.15;;;13.70;64.70;;;;;;4994745;28;20540;-72
2023/04/12 10:39:39;;;;;;;1.90;1.40;;;14.10;59.60;;;;;;4994596;28;20779;-72
2023/04/12 10:42:27;;;;;;;4.70;1.60;;;14.50;47.30;;;;;;5006776;28;20433;-71
2023/04/12 10:45:18;;;;;;;2.03;1.20;;;14.60;40.60;;;;;;4998602;28;20390;-71
2023/04/12 10:47:47;;;;;;;1.40;0.90;;;14.60;39.30;;;;;;4991876;28;20485;-73
2023/04/12 10:50:23;;;;;;;1.85;1.30;;;14.40;41.00;;;;;;4996176;28;20375;-72
2023/04/12 10:53:23;;;;;;;1.97;1.40;;;14.20;42.50;;;;;;4993962;28;20473;-72
2023/04/12 10:55:49;;;;;;;2.75;1.42;;;14.00;45.80;;;;;;4971320;28;20429;-72
2023/04/12 10:58:49;;;;;;;3.20;1.70;;;13.80;44.80;;;;;;4991794;28;20472;-72
2023/04/12 11:01:18;;;;;;;4.10;1.88;;;13.50;46.90;;;;;;4993455;28;20386;-72
2023/04/12 11:04:05;;;;;;;3.50;2.20;;;13.50;51.60;;;;;;4993516;28;20697;-72
2023/04/12 11:07:08;;;;;;;3.85;2.40;;;13.30;53.20;;;;;;4992032;28;20390;-74
2023/04/12 11:09:41;;;;;;;4.22;2.10;;;12.90;51.70;;;;;;4990117;28;20405;-72
2023/04/12 11:12:06;;;;;;;6.07;2.30;;;12.50;53.10;;;;;;4991741;28;20414;-73
2023/04/12 11:14:42;;;;;;;5.03;2.50;;;12.30;55.30;;;;;;4993021;28;20938;-71
2023/04/12 11:17:07;;;;;;;7.97;3.40;;;12.40;56.30;;;;;;4992767;28;20521;-71
2023/04/12 11:19:38;;;;;;;10.15;2.60;;;12.70;56.40;;;;;;4993678;28;20413;-71
2023/04/12 11:22:05;;;;;;;3.67;1.77;;;12.90;51.00;;;;;;4992667;28;20386;-71
2023/04/12 11:24:30;;;;;;;5.15;2.60;;;12.70;50.50;;;;;;4992885;28;20386;-72
2023/04/12 11:26:58;;;;;;;6.53;2.45;;;12.70;50.10;;;;;;4993069;28;20418;-72
2023/04/12 11:29:25;;;;;;;7.53;2.55;;;13.00;50.20;;;;;;4992470;28;20413;-71
2023/04/12 11:31:51;;;;;;;7.03;2.10;;;13.40;42.80;;;;;;4992798;28;20512;-72
2023/04/12 11:34:17;;;;;;;6.30;2.30;;;13.70;38.40;;;;;;4993615;28;20426;-73
2023/04/12 11:36:50;;;;;;;8.35;2.80;;;13.90;36.30;;;;;;4992991;28;20394;-73
2023/04/12 11:39:17;;;;;;;5.57;2.60;;;14.10;37.30;;;;;;4995970;28;20382;-73
2023/04/12 11:41:47;;;;;;;6.35;2.95;;;14.50;33.60;;;;;;4992955;28;20402;-73
2023/04/12 11:44:17;;;;;;;11.50;3.10;;;14.60;33.00;;;;;;4995548;28;20770;-72
2023/04/12 11:46:46;;;;;;;8.23;2.70;;;15.10;32.10;;;;;;4993616;28;20470;-71
2023/04/12 11:49:19;;;;;;;6.90;2.97;;;15.60;28.70;;;;;;4993679;28;20400;-73
2023/04/12 11:51:45;;;;;;;6.63;2.50;;;15.20;31.70;;;;;;4992332;28;20905;-73
2023/04/12 11:54:12;;;;;;;7.57;2.47;;;15.10;30.70;;;;;;4997773;28;20477;-72
2023/04/12 11:56:39;;;;;;;9.93;3.35;;;15.00;31.70;;;;;;4992953;28;20382;-73
2023/04/12 11:59:06;;;;;;;5.30;2.92;;;14.90;31.40;;;;;;4993308;28;20482;-72
2023/04/12 12:01:34;;;;;;;9.70;3.20;;;14.90;33.70;;;;;;4991995;28;20806;-71
2023/04/12 12:04:00;;;;;;;10.27;2.70;;;15.10;31.80;;;;;;4993465;28;20389;-72
2023/04/12 12:06:26;;;;;;;12.73;3.00;;;15.20;33.30;;;;;;4992461;28;20887;-73
2023/04/12 12:08:54;;;;;;;6.20;2.47;;;15.50;31.10;;;;;;4994797;28;20420;-73
2023/04/12 12:11:23;;;;;;;5.20;2.58;;;15.80;28.20;;;;;;4992360;28;20382;-73
2023/04/12 12:13:51;;;;;;;9.10;3.00;;;15.70;28.10;;;;;;4996888;28;20856;-72
2023/04/12 12:16:18;;;;;;;6.85;2.40;;;15.60;25.80;;;;;;4999689;28;20494;-72
2023/04/12 12:18:48;;;;;;;6.43;2.90;;;15.70;26.20;;;;;;4994331;28;20383;-72
2023/04/12 12:21:14;;;;;;;8.30;2.80;;;15.70;26.80;;;;;;4991837;28;20378;-72
2023/04/12 12:23:44;;;;;;;7.13;3.77;;;15.90;26.80;;;;;;4998179;28;20477;-73
2023/04/12 12:26:21;;;;;;;8.18;3.72;;;15.90;25.50;;;;;;5007849;28;20390;-71
2023/04/12 12:28:51;;;;;;;7.13;2.43;;;15.40;26.80;;;;;;5007722;28;20382;-73
2023/04/12 12:31:26;;;;;;;11.38;2.70;;;15.20;25.30;;;;;;5008870;28;20922;-73
2023/04/12 12:33:58;;;;;;;10.13;2.63;;;15.00;22.80;;;;;;5007509;28;20390;-72
2023/04/12 12:36:32;;;;;;;8.48;2.70;;;14.90;25.10;;;;;;5009434;28;20413;-71
2023/04/12 12:39:09;;;;;;;7.05;2.72;;;15.00;26.20;;;;;;5000589;28;20398;-72
2023/04/12 12:41:35;;;;;;;6.45;2.88;;;15.60;23.90;;;;;;4996331;28;20434;-72
2023/04/12 12:44:01;;;;;;;8.68;2.83;;;16.00;21.90;;;;;;4994643;28;20740;-72
2023/04/12 12:46:27;;;;;;;11.40;3.00;;;16.20;21.80;;;;;;4993894;28;20417;-71
2023/04/12 12:48:52;;;;;;;8.48;3.30;;;16.40;20.30;;;;;;4994965;28;20448;-71
2023/04/12 12:51:21;;;;;;;10.10;3.00;;;16.40;20.40;;;;;;4992697;28;20406;-73
2023/04/12 12:53:47;;;;;;;12.25;3.53;;;16.50;20.00;;;;;;4992076;28;20426;-72